Time;durP1;ratioP1;P1;durP2;ratioP2;P2;SDS_P1;SDS_P2;PMS_P1;PMS_P2;Temp;Humidity;BMP_temperature;BMP_pressure;BME280_temperature;BME280_humidity;BME280_pressure;Samples;Min_cycle;Max_cycle;Signal;HPM_P1;HPM_P2
2022/01/14 00:01:48;;;;;;;97.40;27.60;;;;;;;-4.62;100.00;97592.69;4985705;28;20042;-49
2022/01/14 00:04:16;;;;;;;113.07;26.77;;;;;;;-4.86;100.00;97615.13;4988391;28;20049;-47
2022/01/14 00:06:43;;;;;;;92.60;25.52;;;;;;;-4.88;100.00;97611.84;4986296;28;20061;-46
2022/01/14 00:09:11;;;;;;;93.70;27.00;;;;;;;-4.83;100.00;97606.81;4986436;28;20520;-45
2022/01/14 00:11:43;;;;;;;108.68;26.20;;;;;;;-4.68;100.00;97606.69;4995996;28;20126;-47
2022/01/14 00:16:44;;;;;;;;;;;;;;;-4.30;100.00;97609.72;4982029;28;20047;-49
2022/01/14 00:19:11;;;;;;;85.45;23.08;;;;;;;-4.64;100.00;97607.13;4985762;28;19933;-46
2022/01/14 00:21:41;;;;;;;99.70;23.92;;;;;;;-4.74;100.00;97595.09;4983132;28;20057;-44
2022/01/14 00:34:36;;;;;;;77.80;24.13;;;;;;;-4.48;100.00;97597.06;4991785;28;20479;-48
2022/01/14 00:37:04;;;;;;;68.93;23.92;;;;;;;-4.68;100.00;97582.09;4994071;28;20034;-50
2022/01/14 00:39:31;;;;;;;76.95;25.58;;;;;;;-4.64;100.00;97586.00;4989464;28;20485;-43
2022/01/14 00:41:58;;;;;;;73.53;24.30;;;;;;;-4.66;100.00;97580.91;4994421;28;20143;-45
2022/01/14 00:44:25;;;;;;;77.75;24.33;;;;;;;-4.64;100.00;97576.25;4997322;28;20408;-42
2022/01/14 00:46:52;;;;;;;66.88;24.75;;;;;;;-4.65;100.00;97574.59;4999708;28;20038;-48
2022/01/14 00:49:20;;;;;;;77.80;25.13;;;;;;;-4.87;100.00;97567.81;4991411;28;20511;-47
2022/01/14 00:51:48;;;;;;;71.68;23.55;;;;;;;-4.71;100.00;97559.56;4995062;28;20443;-47
2022/01/14 00:54:17;;;;;;;82.28;25.83;;;;;;;-4.72;100.00;97557.91;4992814;28;20065;-46
2022/01/14 00:57:01;;;;;;;73.80;24.38;;;;;;;-4.65;100.00;97564.03;4993951;28;20062;-42
2022/01/14 00:59:28;;;;;;;86.70;25.25;;;;;;;-4.92;100.00;97557.81;4986512;28;20046;-47
2022/01/14 01:01:59;;;;;;;74.70;25.52;;;;;;;-4.87;100.00;97557.25;4989808;28;20043;-47
2022/01/14 01:04:32;;;;;;;82.90;25.65;;;;;;;-4.95;100.00;97553.72;4977331;28;20053;-45
2022/01/14 01:07:02;;;;;;;83.67;23.87;;;;;;;-4.82;100.00;97549.53;4990542;28;20054;-47
2022/01/14 01:09:30;;;;;;;73.65;27.05;;;;;;;-4.26;100.00;97537.00;4984471;28;20689;-46
2022/01/14 01:12:11;;;;;;;131.43;27.10;;;;;;;-3.89;100.00;97540.13;4997480;28;20046;-47
2022/01/14 01:14:46;;;;;;;86.53;27.17;;;;;;;-3.63;100.00;97538.53;4991103;28;20419;-46
2022/01/14 01:17:13;;;;;;;105.93;26.98;;;;;;;-3.30;97.93;97539.34;5012989;28;20113;-43
2022/01/14 01:19:40;;;;;;;92.38;25.98;;;;;;;-3.88;99.41;97549.69;4997933;28;20055;-43
2022/01/14 01:22:07;;;;;;;81.68;25.23;;;;;;;-3.63;100.00;97554.41;4989492;28;20035;-45
2022/01/14 01:24:47;;;;;;;109.32;24.38;;;;;;;-4.51;100.00;97554.38;4994639;28;20483;-46
2022/01/14 01:27:16;;;;;;;95.22;24.98;;;;;;;-5.00;100.00;97558.78;4995784;28;20046;-48
2022/01/14 01:30:13;;;;;;;123.40;26.80;;;;;;;-5.17;100.00;97555.63;4996325;28;20038;-45
2022/01/14 01:32:33;;;;;;;144.02;24.88;;;;;;;-5.22;100.00;97554.56;4987760;28;20046;-48
2022/01/14 01:35:00;;;;;;;104.88;25.00;;;;;;;-5.11;100.00;97555.84;4994091;28;20042;-50
2022/01/14 01:37:26;;;;;;;150.35;24.58;;;;;;;-5.09;100.00;97559.13;4991965;28;20042;-46
2022/01/14 01:39:53;;;;;;;100.38;26.25;;;;;;;-4.95;100.00;97556.38;4981584;28;20039;-47
2022/01/14 01:42:27;;;;;;;100.85;27.27;;;;;;;-4.58;100.00;97557.00;4999488;28;20042;-47
2022/01/14 01:44:54;;;;;;;99.68;25.58;;;;;;;-4.78;100.00;97556.06;4998413;28;20068;-48
2022/01/14 01:47:22;;;;;;;98.63;26.48;;;;;;;-4.78;100.00;97556.06;4998621;28;20411;-43
2022/01/14 01:49:49;;;;;;;85.05;24.77;;;;;;;-4.71;100.00;97555.09;4987790;28;20042;-45
2022/01/14 01:52:16;;;;;;;77.97;25.30;;;;;;;-4.82;100.00;97549.53;4993461;28;20105;-47
2022/01/14 01:54:43;;;;;;;86.80;23.67;;;;;;;-4.77;100.00;97553.22;4997777;28;20097;-51
2022/01/14 01:57:10;;;;;;;80.60;25.30;;;;;;;-4.90;100.00;97550.53;4985344;28;20573;-48
2022/01/14 01:59:37;;;;;;;83.30;25.20;;;;;;;-4.35;100.00;97545.31;4992975;28;20042;-48
2022/01/14 02:02:05;;;;;;;98.85;23.98;;;;;;;-5.09;100.00;97546.75;4986848;28;20046;-48
2022/01/14 02:04:32;;;;;;;69.47;24.63;;;;;;;-4.60;100.00;97544.97;4998475;28;20038;-44
2022/01/14 02:06:59;;;;;;;71.00;22.77;;;;;;;-4.62;100.00;97541.72;4990462;28;20108;-45
2022/01/14 02:09:26;;;;;;;72.32;24.33;;;;;;;-4.25;100.00;97537.81;4995874;28;20467;-44
2022/01/14 02:11:53;;;;;;;71.97;23.75;;;;;;;-3.68;100.00;97543.63;4997950;28;20052;-43
2022/01/14 02:19:42;;;;;;;62.25;22.92;;;;;;;-4.44;100.00;97531.44;5010980;28;20042;-46
2022/01/14 02:22:13;;;;;;;58.90;22.90;;;;;;;-4.16;100.00;97535.78;4993226;28;20081;-52
2022/01/14 02:27:14;;;;;;;60.97;22.48;;;;;;;-4.78;100.00;97541.03;4993454;28;20035;-50
2022/01/14 02:29:41;;;;;;;61.33;24.33;;;;;;;-4.05;100.00;97536.03;4980049;28;20451;-49
2022/01/14 02:32:08;;;;;;;53.60;21.42;;;;;;;-4.80;100.00;97529.84;4994322;28;20406;-47
2022/01/14 02:34:39;;;;;;;65.78;24.00;;;;;;;-4.96;100.00;97520.44;4992339;28;20053;-46
2022/01/14 02:37:07;;;;;;;70.32;25.25;;;;;;;-4.73;100.00;97520.13;4990506;28;20066;-44
2022/01/14 02:39:34;;;;;;;63.00;23.55;;;;;;;-4.94;100.00;97513.13;4989395;28;20042;-44
2022/01/14 02:42:01;;;;;;;64.95;23.40;;;;;;;-5.01;100.00;97512.25;4994572;28;20046;-44
2022/01/14 02:44:30;;;;;;;57.67;23.65;;;;;;;-4.99;100.00;97515.53;4991012;28;20050;-49
2022/01/14 02:47:04;;;;;;;56.28;21.75;;;;;;;-4.32;100.00;97518.44;4986415;28;20133;-48
2022/01/14 02:49:33;;;;;;;61.80;22.17;;;;;;;-3.93;100.00;97517.75;4986596;28;20674;-45
2022/01/14 02:52:04;;;;;;;59.90;22.55;;;;;;;-3.97;99.68;97507.78;4994788;28;20137;-47
2022/01/14 02:54:40;;;;;;;58.03;22.23;;;;;;;-4.70;100.00;97514.47;4991876;28;20046;-45
2022/01/14 02:57:09;;;;;;;59.80;21.65;;;;;;;-5.01;100.00;97506.16;4991048;28;20057;-47
2022/01/14 02:59:39;;;;;;;61.17;23.27;;;;;;;-5.04;100.00;97504.72;4973880;28;20043;-48
2022/01/14 03:02:10;;;;;;;56.22;21.63;;;;;;;-5.04;100.00;97502.09;4990576;28;20459;-50
2022/01/14 03:04:40;;;;;;;57.47;20.92;;;;;;;-4.76;100.00;97493.31;4988748;28;20035;-49
2022/01/14 03:07:08;;;;;;;56.67;20.73;;;;;;;-4.16;100.00;97489.06;4991217;28;20038;-46
2022/01/14 03:09:37;;;;;;;56.58;21.77;;;;;;;-4.00;99.59;97488.66;4993415;28;20478;-45
2022/01/14 03:12:05;;;;;;;55.15;20.10;;;;;;;-3.55;96.59;97480.94;4992118;28;20128;-47
2022/01/14 03:14:32;;;;;;;55.90;20.95;;;;;;;-3.80;97.42;97483.41;4987530;28;20061;-45
2022/01/14 03:17:00;;;;;;;53.15;19.98;;;;;;;-4.64;99.88;97475.91;4998093;28;20042;-47
2022/01/14 03:19:28;;;;;;;49.03;19.65;;;;;;;-4.84;100.00;97477.63;4973323;28;20116;-47
2022/01/14 03:22:07;;;;;;;45.88;19.02;;;;;;;-4.94;100.00;97477.97;4989765;28;20687;-46
2022/01/14 03:27:04;;;;;;;47.97;19.45;;;;;;;-5.17;100.00;97460.63;4995497;28;20076;-45
2022/01/14 03:29:31;;;;;;;50.45;20.02;;;;;;;-5.20;100.00;97452.28;4991665;28;20111;-45
2022/01/14 03:31:58;;;;;;;45.88;19.52;;;;;;;-5.11;100.00;97472.22;4982099;28;20134;-47
2022/01/14 03:34:28;;;;;;;54.22;21.35;;;;;;;-5.12;100.00;97461.88;5007782;28;20130;-48
2022/01/14 03:36:55;;;;;;;52.80;20.33;;;;;;;-5.21;100.00;97469.94;4993199;28;20042;-44
2022/01/14 03:39:22;;;;;;;52.83;20.27;;;;;;;-5.20;100.00;97460.19;4981647;28;20484;-50
2022/01/14 03:41:49;;;;;;;53.92;20.48;;;;;;;-5.07;100.00;97456.81;4996240;28;20046;-49
2022/01/14 03:44:17;;;;;;;51.45;20.10;;;;;;;-4.59;100.00;97457.63;4994887;28;20045;-49
2022/01/14 03:46:44;;;;;;;55.50;21.25;;;;;;;-4.42;99.05;97462.53;4993367;28;20042;-49
2022/01/14 03:49:11;;;;;;;50.88;20.92;;;;;;;-4.75;100.00;97450.84;4984044;28;20412;-49
2022/01/14 03:51:39;;;;;;;57.50;21.40;;;;;;;-4.65;100.00;97460.22;4986341;28;20205;-49
2022/01/14 03:54:06;;;;;;;50.05;19.92;;;;;;;-4.98;100.00;97450.34;4988927;28;20043;-53
2022/01/14 03:56:32;;;;;;;57.72;21.50;;;;;;;-5.10;100.00;97451.91;4995493;28;20049;-50
2022/01/14 03:59:01;;;;;;;56.22;19.95;;;;;;;-5.27;100.00;97443.50;4994445;28;20054;-45
2022/01/14 04:01:28;;;;;;;54.90;21.00;;;;;;;-5.28;100.00;97441.88;4979766;28;20121;-47
2022/01/14 04:03:55;;;;;;;60.63;22.15;;;;;;;-5.36;100.00;97428.84;4986293;28;20041;-45
2022/01/14 04:06:21;;;;;;;54.95;21.33;;;;;;;-5.25;100.00;97444.94;4988849;28;20042;-46
2022/01/14 04:08:48;;;;;;;59.35;22.65;;;;;;;-4.98;100.00;97435.31;4994256;28;20034;-45
2022/01/14 04:11:15;;;;;;;54.75;21.25;;;;;;;-4.32;100.00;97432.09;4988431;28;20042;-46
2022/01/14 04:13:54;;;;;;;60.20;23.25;;;;;;;-4.08;97.77;97435.97;4986399;28;20051;-46
2022/01/14 04:16:24;;;;;;;57.33;23.20;;;;;;;-4.78;100.00;97443.31;4994198;28;20126;-47
2022/01/14 04:18:52;;;;;;;50.20;20.85;;;;;;;-4.70;100.00;97431.78;4991700;28;20045;-47
2022/01/14 04:21:19;;;;;;;51.92;21.70;;;;;;;-4.84;100.00;97427.47;5001668;28;20045;-45
2022/01/14 04:23:46;;;;;;;52.28;21.20;;;;;;;-4.95;100.00;97432.28;4990671;28;20075;-47
2022/01/14 04:26:13;;;;;;;52.00;20.42;;;;;;;-5.08;100.00;97432.25;4990695;28;20049;-44
2022/01/14 04:28:40;;;;;;;52.50;21.33;;;;;;;-5.02;100.00;97433.28;4998687;28;20035;-45
2022/01/14 04:31:09;;;;;;;53.88;21.13;;;;;;;-5.19;100.00;97428.34;4985116;28;20089;-45
2022/01/14 04:33:37;;;;;;;58.08;21.88;;;;;;;-5.10;100.00;97429.00;4999222;28;20771;-49
2022/01/14 04:36:05;;;;;;;59.13;23.58;;;;;;;-4.78;100.00;97429.31;4999251;28;20061;-47
2022/01/14 04:38:33;;;;;;;53.80;21.73;;;;;;;-4.58;100.00;97427.56;4997794;28;20034;-49
2022/01/14 04:41:01;;;;;;;56.90;21.88;;;;;;;-3.94;98.32;97423.56;4992406;28;20057;-47
2022/01/14 04:43:29;;;;;;;53.88;22.60;;;;;;;-3.58;93.90;97414.41;5002504;28;20038;-49
2022/01/14 04:48:33;;;;;;;53.72;21.67;;;;;;;-3.26;91.67;97412.69;4998809;28;20045;-48
2022/01/14 04:51:02;;;;;;;55.00;23.10;;;;;;;-3.63;92.15;97415.03;4987736;28;20072;-47
2022/01/14 04:53:29;;;;;;;59.53;22.65;;;;;;;-4.34;96.35;97409.53;4987669;28;20492;-46
2022/01/14 04:55:57;;;;;;;56.13;23.02;;;;;;;-3.69;95.65;97415.03;4994861;28;20141;-49
2022/01/14 04:58:26;;;;;;;51.47;21.30;;;;;;;-4.15;95.86;97414.03;4990495;28;20042;-49
2022/01/14 05:00:54;;;;;;;57.67;22.77;;;;;;;-4.52;97.53;97408.28;4992503;28;20125;-48
2022/01/14 05:03:21;;;;;;;52.45;21.23;;;;;;;-4.54;98.74;97415.59;4990892;28;20125;-48
2022/01/14 05:05:52;;;;;;;56.67;23.23;;;;;;;-3.65;93.93;97417.06;4980107;28;20042;-49
2022/01/14 05:08:23;;;;;;;53.20;22.02;;;;;;;-3.96;95.53;97414.22;4989396;28;20129;-50
2022/01/14 05:13:25;;;;;;;51.08;20.30;;;;;;;-4.38;95.83;97416.22;4998919;28;20038;-48
2022/01/14 05:15:53;;;;;;;55.28;22.40;;;;;;;-4.40;96.48;97412.97;4989845;28;20500;-48
2022/01/14 05:18:21;;;;;;;57.90;21.63;;;;;;;-4.23;97.29;97409.72;5000673;28;20070;-45
2022/01/14 05:20:47;;;;;;;53.38;21.77;;;;;;;-4.42;96.48;97404.41;5004200;28;20042;-48
2022/01/14 05:23:14;;;;;;;51.63;23.30;;;;;;;-4.48;97.10;97401.59;4998571;28;20046;-48
2022/01/14 05:25:41;;;;;;;49.95;22.38;;;;;;;-4.71;98.09;97420.41;5022658;22;20467;-42
2022/01/14 05:28:08;;;;;;;56.90;22.88;;;;;;;-4.46;97.26;97414.56;4992260;28;20401;-44
2022/01/14 05:30:35;;;;;;;53.33;22.02;;;;;;;-4.44;97.11;97417.84;4996134;28;20443;-41
2022/01/14 05:33:02;;;;;;;52.38;21.88;;;;;;;-4.57;98.05;97413.34;5001123;28;20049;-50
2022/01/14 05:35:29;;;;;;;53.50;22.00;;;;;;;-4.52;97.18;97415.38;4989200;28;20429;-42
2022/01/14 05:37:56;;;;;;;52.38;21.38;;;;;;;-4.94;99.12;97415.47;4998681;28;20038;-41
2022/01/14 05:40:28;;;;;;;50.53;21.10;;;;;;;-4.86;99.99;97416.31;4999041;28;20049;-45
2022/01/14 05:42:56;;;;;;;58.45;21.75;;;;;;;-4.77;99.85;97415.94;4995821;28;20038;-45
2022/01/14 05:45:23;;;;;;;52.25;20.88;;;;;;;-4.87;100.00;97412.84;4996211;28;20038;-46
2022/01/14 05:47:51;;;;;;;55.35;22.27;;;;;;;-4.70;100.00;97415.94;5000664;28;20060;-40
2022/01/14 05:50:21;;;;;;;51.70;21.92;;;;;;;-4.57;99.33;97417.81;4994079;28;20042;-49
2022/01/14 05:52:51;;;;;;;50.45;22.20;;;;;;;-4.13;96.85;97419.09;4985725;28;20456;-45
2022/01/14 05:55:21;;;;;;;54.88;22.30;;;;;;;-4.71;99.09;97417.78;4994169;28;20506;-41
2022/01/14 05:57:48;;;;;;;55.00;21.27;;;;;;;-4.73;99.71;97419.78;4994681;28;20458;-46
2022/01/14 06:00:18;;;;;;;55.50;20.48;;;;;;;-4.62;99.65;97430.78;4993734;28;20381;-43
2022/01/14 06:02:46;;;;;;;49.97;20.60;;;;;;;-4.09;99.04;97426.44;4990946;28;20408;-44
2022/01/14 06:05:14;;;;;;;49.42;22.33;;;;;;;-4.40;97.33;97429.63;4990403;28;20046;-49
2022/01/14 06:07:41;;;;;;;52.05;21.55;;;;;;;-4.48;98.12;97437.75;4974155;28;20405;-42
2022/01/14 06:10:08;;;;;;;53.42;20.80;;;;;;;-4.53;98.06;97432.25;4985265;28;20042;-47
2022/01/14 06:12:35;;;;;;;47.33;20.60;;;;;;;-4.64;99.13;97436.28;4980800;28;20448;-46
2022/01/14 06:15:04;;;;;;;53.47;21.75;;;;;;;-3.95;97.16;97431.72;4993359;28;20073;-41
2022/01/14 06:17:31;;;;;;;52.05;21.42;;;;;;;-3.34;92.56;97434.13;4976042;28;20101;-42
2022/01/14 06:19:57;;;;;;;49.75;20.58;;;;;;;-3.44;93.32;97429.25;4991859;28;20050;-46
2022/01/14 06:22:24;;;;;;;47.22;20.58;;;;;;;-3.23;90.62;97425.53;4993174;28;20174;-44
2022/01/14 06:24:51;;;;;;;48.58;21.05;;;;;;;-3.12;89.24;97422.25;5000809;28;20456;-45
2022/01/14 06:27:18;;;;;;;48.95;20.83;;;;;;;-3.74;93.34;97426.22;4998332;28;20057;-46
2022/01/14 06:29:45;;;;;;;50.20;21.45;;;;;;;-3.20;89.88;97414.53;4989660;28;20097;-42
2022/01/14 06:32:12;;;;;;;52.33;21.60;;;;;;;-2.94;88.86;97424.22;4986252;28;20073;-47
2022/01/14 06:34:39;;;;;;;55.60;22.33;;;;;;;-2.95;88.18;97422.59;4996636;28;20100;-48
2022/01/14 06:37:06;;;;;;;55.28;22.38;;;;;;;-3.01;88.84;97415.50;4993323;28;20042;-46
2022/01/14 06:39:33;;;;;;;47.90;21.15;;;;;;;-2.78;87.84;97417.63;4972484;28;20515;-45
2022/01/14 06:42:01;;;;;;;53.20;21.90;;;;;;;-2.77;87.49;97413.16;4988273;28;20052;-43
2022/01/14 06:44:27;;;;;;;59.92;22.00;;;;;;;-2.93;87.46;97401.19;4998619;28;20042;-41
2022/01/14 06:46:54;;;;;;;53.47;22.05;;;;;;;-2.83;88.25;97404.19;4992081;28;20042;-46
2022/01/14 06:49:21;;;;;;;49.80;22.27;;;;;;;-3.42;89.20;97395.44;4972458;28;20049;-46
2022/01/14 06:51:48;;;;;;;46.00;20.70;;;;;;;-3.92;92.85;97399.59;4994361;28;20038;-51
2022/01/14 06:54:16;;;;;;;52.90;22.23;;;;;;;-3.99;94.48;97396.94;4989261;28;20074;-46
2022/01/14 06:56:43;;;;;;;51.85;20.58;;;;;;;-4.26;95.39;97382.88;4990516;28;20090;-48
2022/01/14 06:59:12;;;;;;;49.50;21.30;;;;;;;-4.03;94.81;97398.34;4995236;28;20074;-41
2022/01/14 07:01:39;;;;;;;49.50;20.25;;;;;;;-4.47;96.49;97400.56;5003752;28;20042;-46
2022/01/14 07:04:07;;;;;;;45.88;20.45;;;;;;;-4.37;96.38;97402.00;4990442;28;20038;-41
2022/01/14 07:06:34;;;;;;;49.60;21.88;;;;;;;-4.49;97.08;97399.94;4994681;28;20042;-42
2022/01/14 07:09:01;;;;;;;54.65;22.10;;;;;;;-4.37;97.67;97409.94;4992369;28;20042;-48
2022/01/14 07:11:34;;;;;;;54.42;22.30;;;;;;;-4.40;97.64;97405.03;4996685;28;20042;-44
2022/01/14 07:14:03;;;;;;;47.92;19.92;;;;;;;-3.93;96.67;97409.34;4992468;28;20050;-41
2022/01/14 07:16:30;;;;;;;51.83;21.73;;;;;;;-4.05;96.12;97417.06;4987870;28;20053;-46
2022/01/14 07:18:57;;;;;;;45.03;20.25;;;;;;;-4.15;97.31;97411.38;4990846;28;20041;-44
2022/01/14 07:21:24;;;;;;;51.78;20.98;;;;;;;-3.96;96.46;97408.91;4996722;28;20080;-49
2022/01/14 07:23:51;;;;;;;45.90;20.52;;;;;;;-3.43;94.49;97419.47;4989789;28;20438;-45
2022/01/14 07:26:19;;;;;;;45.80;21.08;;;;;;;-3.74;95.19;97425.41;4991465;28;20060;-46
2022/01/14 07:28:47;;;;;;;42.25;20.05;;;;;;;-3.59;95.29;97426.81;5001125;28;20037;-42
2022/01/14 07:31:13;;;;;;;51.90;21.25;;;;;;;-3.10;92.53;97424.69;4997617;28;20440;-49
2022/01/14 07:33:40;;;;;;;44.92;19.98;;;;;;;-3.17;91.85;97430.00;4988416;28;20053;-47
2022/01/14 07:36:07;;;;;;;49.58;20.38;;;;;;;-2.98;92.59;97428.31;4994228;28;20042;-48
2022/01/14 07:38:34;;;;;;;45.97;20.27;;;;;;;-2.66;89.05;97426.56;4994094;28;20462;-46
2022/01/14 07:41:01;;;;;;;48.10;21.25;;;;;;;-2.51;88.14;97433.41;4999041;28;20068;-43
2022/01/14 07:43:28;;;;;;;45.50;19.75;;;;;;;-2.42;88.10;97427.63;4989444;28;20142;-41
2022/01/14 07:45:55;;;;;;;43.20;19.80;;;;;;;-2.47;88.17;97427.47;4998958;28;20034;-41
2022/01/14 07:48:22;;;;;;;45.95;19.73;;;;;;;-2.51;90.01;97436.03;4988635;28;20050;-42
2022/01/14 07:50:49;;;;;;;49.90;21.95;;;;;;;-2.28;88.94;97433.66;5001431;28;20096;-45
2022/01/14 07:53:16;;;;;;;43.60;19.73;;;;;;;-2.29;88.47;97428.59;4997650;28;20095;-41
2022/01/14 07:55:43;;;;;;;43.40;19.15;;;;;;;-2.55;91.17;97426.91;4992133;28;20435;-47
2022/01/14 07:58:11;;;;;;;42.85;18.40;;;;;;;-2.83;92.48;97428.03;5000774;28;20046;-47
2022/01/14 08:00:39;;;;;;;41.42;19.98;;;;;;;-2.27;91.19;97432.66;4996171;28;20045;-49
2022/01/14 08:03:07;;;;;;;43.95;21.10;;;;;;;-2.44;91.78;97434.16;4994631;28;20041;-48
2022/01/14 08:05:35;;;;;;;40.65;19.90;;;;;;;-2.32;91.23;97436.97;4994620;28;20042;-46
2022/01/14 08:08:07;;;;;;;38.20;19.05;;;;;;;-2.46;90.94;97433.59;4998369;28;20052;-45
2022/01/14 08:10:35;;;;;;;37.10;17.60;;;;;;;-2.77;94.18;97448.38;4996999;28;20039;-43
2022/01/14 08:13:03;;;;;;;37.67;18.27;;;;;;;-3.04;95.92;97447.69;5006041;28;20456;-49
2022/01/14 08:15:31;;;;;;;36.45;17.02;;;;;;;-3.08;96.97;97444.63;4988953;28;20047;-45
2022/01/14 08:18:00;;;;;;;34.10;17.15;;;;;;;-2.58;95.75;97442.19;4995218;28;20046;-42
2022/01/14 08:20:28;;;;;;;32.03;15.75;;;;;;;-2.40;94.91;97440.69;4996593;28;20050;-51
2022/01/14 08:22:55;;;;;;;31.77;16.17;;;;;;;-1.76;90.59;97447.59;4993448;28;20062;-47
2022/01/14 08:25:22;;;;;;;32.08;15.38;;;;;;;-1.85;90.06;97450.72;5013972;28;20069;-49
2022/01/14 08:27:50;;;;;;;36.95;16.55;;;;;;;-1.57;88.84;97445.00;5000287;28;20101;-42
2022/01/14 08:30:17;;;;;;;29.65;15.23;;;;;;;-1.69;88.84;97440.41;4993259;28;20047;-45
2022/01/14 08:32:44;;;;;;;27.80;14.48;;;;;;;-1.96;90.61;97436.31;4995154;28;20081;-45
2022/01/14 08:35:11;;;;;;;32.45;15.48;;;;;;;-1.60;89.13;97442.78;5000927;28;20141;-46
2022/01/14 08:37:39;;;;;;;33.92;14.98;;;;;;;-1.82;90.17;97439.69;4993506;28;20038;-43
2022/01/14 08:40:08;;;;;;;29.52;15.75;;;;;;;-1.42;88.72;97442.81;4980415;28;20034;-45
2022/01/14 08:42:35;;;;;;;30.95;15.68;;;;;;;-1.20;87.36;97440.56;4986220;28;20064;-43
2022/01/14 08:45:04;;;;;;;31.48;14.80;;;;;;;-1.18;87.87;97441.16;4994343;28;20054;-42
2022/01/14 08:47:31;;;;;;;29.30;13.80;;;;;;;-1.10;87.10;97434.75;4995105;28;20169;-48
2022/01/14 08:49:58;;;;;;;30.92;16.30;;;;;;;-0.79;86.22;97431.13;4996163;28;20125;-45
2022/01/14 08:52:25;;;;;;;26.08;13.35;;;;;;;-0.75;86.13;97427.81;4997107;28;20042;-42
2022/01/14 08:54:52;;;;;;;29.38;14.15;;;;;;;-0.66;85.28;97424.81;5001711;28;20053;-44
2022/01/14 08:57:23;;;;;;;28.83;13.77;;;;;;;-0.89;86.85;97423.66;4985864;28;20054;-49
2022/01/14 08:59:50;;;;;;;25.55;13.00;;;;;;;-1.24;87.77;97423.44;4997036;28;20045;-48
2022/01/14 09:02:18;;;;;;;23.58;13.48;;;;;;;-1.23;86.72;97422.44;4994979;28;20034;-41
2022/01/14 09:04:45;;;;;;;21.85;12.18;;;;;;;-0.66;85.98;97422.16;4996373;28;20089;-42
2022/01/14 09:07:12;;;;;;;22.35;11.75;;;;;;;-0.61;84.88;97427.63;4999478;28;20053;-50
2022/01/14 09:09:39;;;;;;;20.08;11.63;;;;;;;-0.58;84.62;97422.69;4991841;28;20057;-42
2022/01/14 09:12:08;;;;;;;20.98;11.65;;;;;;;-0.52;82.52;97426.28;4995316;28;20085;-43
2022/01/14 09:14:35;;;;;;;21.40;11.43;;;;;;;-0.69;82.64;97425.28;4998582;28;20072;-44
2022/01/14 09:17:03;;;;;;;24.35;12.02;;;;;;;-0.36;83.72;97422.19;4995951;28;20041;-45
2022/01/14 09:19:30;;;;;;;23.17;10.68;;;;;;;-0.22;82.30;97425.50;4992103;28;20654;-41
2022/01/14 09:21:57;;;;;;;20.73;11.77;;;;;;;-0.18;82.19;97426.66;4996823;28;20833;-41
2022/01/14 09:24:43;;;;;;;21.90;11.98;;;;;;;0.03;81.71;97425.31;4996757;28;20037;-45
2022/01/14 09:27:11;;;;;;;21.83;11.75;;;;;;;0.31;79.83;97427.34;4993772;28;20046;-41
2022/01/14 09:29:38;;;;;;;24.60;12.55;;;;;;;0.26;81.45;97430.69;4998686;28;20045;-45
2022/01/14 09:32:07;;;;;;;17.52;10.93;;;;;;;-0.15;81.81;97429.66;4993493;28;20038;-46
2022/01/14 09:34:34;;;;;;;19.60;11.25;;;;;;;-0.32;82.14;97431.34;4990349;28;20042;-46
2022/01/14 09:37:02;;;;;;;19.80;11.18;;;;;;;-0.25;81.89;97435.53;4994444;28;20053;-47
2022/01/14 09:39:32;;;;;;;21.30;10.57;;;;;;;0.21;81.05;97433.22;4997717;28;20097;-46
2022/01/14 09:41:59;;;;;;;17.85;10.20;;;;;;;0.44;79.84;97429.78;4994776;28;20478;-45
2022/01/14 09:44:26;;;;;;;17.23;9.57;;;;;;;0.29;78.94;97437.38;4995885;28;20073;-44
2022/01/14 09:46:54;;;;;;;19.65;10.52;;;;;;;0.06;80.37;97424.84;4997392;28;20049;-44
2022/01/14 09:49:21;;;;;;;17.75;10.30;;;;;;;0.23;79.58;97429.28;4990622;28;20049;-45
2022/01/14 09:51:48;;;;;;;17.23;10.52;;;;;;;0.49;80.30;97427.25;4972303;28;20658;-44
2022/01/14 09:54:15;;;;;;;18.60;11.25;;;;;;;0.68;78.78;97420.75;4995358;28;20064;-47
2022/01/14 09:56:45;;;;;;;18.85;10.38;;;;;;;0.69;77.81;97422.38;4996426;28;20038;-44
2022/01/14 09:59:12;;;;;;;18.88;10.13;;;;;;;0.68;77.96;97431.41;4992618;28;20049;-44
2022/01/14 10:01:48;;;;;;;19.48;10.55;;;;;;;0.52;78.71;97425.94;4995398;28;20047;-43
2022/01/14 10:04:21;;;;;;;18.48;10.65;;;;;;;0.90;79.38;97430.81;4993257;28;20092;-46
2022/01/14 10:06:56;;;;;;;20.92;11.23;;;;;;;0.88;77.74;97424.91;4997771;28;20500;-44
2022/01/14 10:09:32;;;;;;;18.90;10.80;;;;;;;0.99;78.57;97420.59;4995497;28;20042;-46
2022/01/14 10:12:01;;;;;;;19.48;10.90;;;;;;;1.19;78.07;97414.88;4997973;28;20038;-46
2022/01/14 10:14:29;;;;;;;17.20;10.38;;;;;;;1.19;77.87;97418.34;4997420;28;20058;-45
2022/01/14 10:17:00;;;;;;;19.42;10.55;;;;;;;1.56;76.49;97416.16;4999326;28;20038;-46
2022/01/14 10:19:33;;;;;;;16.88;10.25;;;;;;;1.63;76.58;97422.16;4985161;28;20494;-46
2022/01/14 10:22:16;;;;;;;17.45;10.25;;;;;;;1.53;75.45;97410.50;4993524;28;20055;-48
2022/01/14 10:24:55;;;;;;;18.92;10.25;;;;;;;1.67;75.92;97419.03;4986471;28;20045;-46
2022/01/14 10:27:40;;;;;;;19.92;10.25;;;;;;;1.61;76.84;97410.09;4994624;28;20141;-45
2022/01/14 10:30:25;;;;;;;18.13;10.68;;;;;;;1.90;73.83;97399.41;4986505;28;20389;-46
2022/01/14 10:33:12;;;;;;;16.38;10.48;;;;;;;1.51;73.47;97407.25;4990266;28;20037;-46
2022/01/14 10:35:42;;;;;;;17.75;9.65;;;;;;;1.54;73.99;97401.44;4994401;28;20040;-48
2022/01/14 10:38:11;;;;;;;16.00;10.02;;;;;;;1.76;73.83;97406.94;4997290;28;20480;-49
2022/01/14 10:40:49;;;;;;;17.50;10.18;;;;;;;1.66;73.58;97401.38;4989916;28;20049;-44
2022/01/14 10:43:22;;;;;;;21.80;12.15;;;;;;;1.93;75.09;97410.44;4986641;28;20057;-46
2022/01/14 10:45:54;;;;;;;16.17;10.07;;;;;;;2.17;74.11;97399.59;4991373;28;20046;-46
2022/01/14 10:48:34;;;;;;;16.40;10.32;;;;;;;2.13;72.87;97398.47;4983541;28;20101;-52
2022/01/14 10:51:02;;;;;;;19.38;10.35;;;;;;;2.29;72.32;97405.69;4995580;28;20062;-47
2022/01/14 10:53:30;;;;;;;16.58;9.90;;;;;;;2.16;70.79;97408.66;4989059;28;20046;-46
2022/01/14 10:56:12;;;;;;;17.52;9.77;;;;;;;2.11;71.57;97401.38;4997794;28;20060;-47
2022/01/14 10:58:45;;;;;;;16.70;9.80;;;;;;;2.13;71.71;97395.81;4996065;28;20038;-48
2022/01/14 11:01:21;;;;;;;17.08;10.45;;;;;;;2.43;72.85;97398.16;4985617;28;20050;-46
2022/01/14 11:03:57;;;;;;;19.77;10.55;;;;;;;2.66;72.12;97389.13;4989502;28;20411;-42
2022/01/14 11:06:39;;;;;;;18.33;9.85;;;;;;;2.80;71.84;97385.06;4990163;28;20125;-47
2022/01/14 11:09:07;;;;;;;17.08;9.90;;;;;;;2.56;69.91;97382.56;4991127;28;20439;-49
2022/01/14 11:11:39;;;;;;;16.05;10.52;;;;;;;2.44;70.79;97381.88;4992199;28;20042;-42
2022/01/14 11:14:08;;;;;;;16.48;10.40;;;;;;;2.55;71.60;97374.81;4996275;28;20039;-43
2022/01/14 11:16:36;;;;;;;15.75;9.52;;;;;;;3.09;69.96;97376.88;5004764;28;20088;-42
2022/01/14 11:19:07;;;;;;;19.88;11.07;;;;;;;2.92;69.93;97368.91;5011579;28;20125;-47
2022/01/14 11:24:25;;;;;;;18.83;10.75;;;;;;;3.15;68.53;97349.97;4994444;23;20042;-47
2022/01/14 11:27:14;;;;;;;18.63;10.73;;;;;;;3.06;68.59;97350.66;4989835;28;20155;-44
2022/01/14 11:29:43;;;;;;;18.20;10.15;;;;;;;3.48;68.48;97349.00;4990796;28;20114;-45
2022/01/14 11:32:11;;;;;;;18.67;10.30;;;;;;;3.88;65.41;97350.44;4987018;28;20451;-51
2022/01/14 11:34:45;;;;;;;16.88;10.60;;;;;;;4.09;66.52;97340.69;4991855;28;20065;-50
2022/01/14 11:37:25;;;;;;;19.25;10.43;;;;;;;5.25;64.41;97341.63;4987301;28;20419;-49
2022/01/14 11:40:10;;;;;;;18.17;9.63;;;;;;;5.00;61.08;97336.16;4972680;28;20415;-50
2022/01/14 11:42:45;;;;;;;16.85;10.25;;;;;;;4.55;63.07;97326.81;4973087;28;20134;-47
2022/01/14 11:45:45;;;;;;;25.92;10.40;;;;;;;4.33;63.47;97335.78;4955947;28;20065;-48
2022/01/14 11:48:31;;;;;;;16.48;9.80;;;;;;;6.19;61.34;97328.91;4981125;28;20137;-48
2022/01/14 11:51:05;;;;;;;17.35;9.73;;;;;;;7.07;59.18;97321.47;4973364;28;20051;-52
2022/01/14 11:53:43;;;;;;;14.82;8.90;;;;;;;7.89;56.25;97319.13;4983088;28;20064;-51
2022/01/14 11:56:32;;;;;;;13.50;8.80;;;;;;;6.67;59.97;97315.94;5007207;28;20628;-49
2022/01/14 11:59:17;;;;;;;14.25;9.00;;;;;;;7.43;56.65;97314.81;4973904;28;20408;-51